createdAt,value
2019-01-31T11:01:22.084Z,19.53
2019-01-31T11:05:31.596Z,22.67
2019-01-31T11:09:32.766Z,22.13
2019-01-31T11:13:00.338Z,22.00
2019-01-31T11:16:25.822Z,21.83
2019-01-31T11:20:29.876Z,22.30
2019-01-31T11:23:51.167Z,21.27
2019-01-31T11:27:47.160Z,22.83
2019-01-31T11:31:18.785Z,20.20
2019-01-31T11:35:09.296Z,20.87
2019-01-31T11:38:52.595Z,19.77
2019-01-31T11:42:54.494Z,17.87
2019-01-31T11:46:29.597Z,18.10
2019-01-31T11:50:19.608Z,18.77
2019-01-31T14:19:27.050Z,10.20
2019-01-31T14:22:22.937Z,9.17
2019-01-31T14:25:17.345Z,9.67
2019-01-31T14:28:12.196Z,9.80
2019-01-31T14:31:07.013Z,9.97
2019-01-31T14:34:01.687Z,9.53
2019-01-31T14:36:56.470Z,9.97
2019-01-31T14:39:50.991Z,9.30
2019-01-31T14:42:45.462Z,8.83
2019-01-31T14:45:39.987Z,10.40
2019-01-31T14:48:34.878Z,10.93
2019-01-31T14:51:29.539Z,10.57
2019-01-31T14:54:24.159Z,9.23
2019-01-31T14:57:18.766Z,9.83
2019-01-31T15:00:17.824Z,12.70
2019-01-31T15:03:12.757Z,10.50
2019-01-31T15:06:07.313Z,11.70
2019-01-31T15:09:01.608Z,10.47
2019-01-31T15:11:57.866Z,10.37
2019-01-31T15:14:52.751Z,9.17
2019-01-31T15:17:47.234Z,7.63
2019-01-31T15:20:45.216Z,8.93
2019-01-31T15:23:40.003Z,10.17
2019-01-31T15:26:34.527Z,8.30
2019-01-31T15:29:29.546Z,9.80
2019-01-31T15:32:24.301Z,9.57
2019-01-31T15:35:18.933Z,7.43
2019-01-31T15:38:13.963Z,8.77
2019-01-31T15:41:08.883Z,9.10
2019-01-31T15:44:03.607Z,8.70
2019-01-31T15:46:58.334Z,8.57
2019-01-31T15:49:53.057Z,9.63
2019-01-31T15:52:48.080Z,8.17
2019-01-31T15:55:42.919Z,8.47
2019-01-31T15:58:38.582Z,9.33
2019-01-31T16:01:33.339Z,10.10
2019-01-31T16:04:28.094Z,10.77
2019-01-31T16:07:22.685Z,9.60
2019-01-31T16:10:17.664Z,8.13
2019-01-31T16:13:12.562Z,10.93
2019-01-31T16:16:07.731Z,9.80
2019-01-31T16:19:02.223Z,9.47
2019-01-31T16:21:57.152Z,8.83
2019-01-31T16:24:51.702Z,9.53
2019-01-31T16:27:46.159Z,11.87
2019-01-31T16:30:41.238Z,11.23
2019-01-31T16:33:35.863Z,11.10
2019-01-31T16:36:30.781Z,14.03
2019-01-31T16:39:25.507Z,13.33
2019-01-31T16:42:20.181Z,12.30
2019-01-31T16:45:16.074Z,14.53
2019-01-31T16:48:10.722Z,14.07
2019-01-31T16:51:05.496Z,12.33
2019-01-31T16:54:00.362Z,12.67
2019-01-31T16:56:55.044Z,13.23
2019-01-31T16:59:49.994Z,13.60
2019-01-31T17:02:44.792Z,13.63
2019-01-31T17:05:39.684Z,14.40
2019-01-31T17:08:34.551Z,12.90
2019-01-31T17:11:29.138Z,13.23
2019-01-31T17:14:24.023Z,15.30
2019-01-31T17:17:18.847Z,14.17
2019-01-31T17:20:29.108Z,13.70
2019-01-31T17:23:23.515Z,13.63
2019-01-31T17:26:18.427Z,15.47
2019-01-31T17:29:13.015Z,14.37
2019-01-31T17:32:08.116Z,18.47
2019-01-31T17:35:03.132Z,14.73
2019-01-31T17:37:57.988Z,18.30
2019-01-31T17:40:52.669Z,15.97
2019-01-31T17:43:48.340Z,17.93
2019-01-31T17:46:42.943Z,18.23
2019-01-31T17:49:37.669Z,16.50
2019-01-31T17:52:32.551Z,17.30
2019-01-31T17:55:27.544Z,16.27
2019-01-31T17:58:22.353Z,16.73
2019-01-31T18:01:17.436Z,18.33
2019-01-31T18:04:12.332Z,16.53
2019-01-31T18:07:06.893Z,16.17
2019-01-31T18:10:01.471Z,16.97
2019-01-31T18:12:56.725Z,18.07
2019-01-31T18:15:51.683Z,19.33
2019-01-31T18:18:46.343Z,18.33
2019-01-31T18:21:41.219Z,18.80
2019-01-31T18:24:36.172Z,20.33
2019-01-31T18:27:30.532Z,18.20
2019-01-31T18:30:27.233Z,15.83
2019-01-31T18:33:22.326Z,17.53
2019-01-31T18:36:17.221Z,17.97
2019-01-31T18:39:12.570Z,19.03
2019-01-31T18:42:07.480Z,19.37
2019-01-31T18:45:01.920Z,21.13
2019-01-31T18:47:56.864Z,21.17
2019-01-31T18:50:51.368Z,19.13
2019-01-31T18:53:46.288Z,19.53
2019-01-31T18:56:40.926Z,20.80
2019-01-31T18:59:35.797Z,20.33
2019-01-31T19:02:30.566Z,22.50
2019-01-31T19:05:24.988Z,18.47
2019-01-31T19:08:19.319Z,17.57
2019-01-31T19:11:13.853Z,18.53
2019-01-31T19:14:09.630Z,18.93
2019-01-31T19:17:04.312Z,18.97
2019-01-31T19:19:58.945Z,20.07
2019-01-31T19:22:54.841Z,18.27
2019-01-31T19:25:50.814Z,19.37
2019-01-31T19:28:45.651Z,19.13
2019-01-31T19:31:40.514Z,19.40
2019-01-31T19:34:35.160Z,19.43
2019-01-31T19:37:30.006Z,19.70
2019-01-31T19:40:30.976Z,20.37
2019-01-31T19:43:25.995Z,19.13
2019-01-31T19:46:20.902Z,20.03
2019-01-31T19:49:15.615Z,18.57
2019-01-31T19:52:10.868Z,20.10
2019-01-31T19:55:05.672Z,21.90
2019-01-31T19:58:01.670Z,21.47
2019-01-31T20:00:56.406Z,21.90
2019-01-31T20:03:50.933Z,18.17
2019-01-31T20:06:46.355Z,20.97
2019-01-31T20:09:41.201Z,19.27
2019-01-31T20:12:36.285Z,18.07
2019-01-31T20:15:32.243Z,20.23
2019-01-31T20:18:27.015Z,20.93
2019-01-31T20:21:21.991Z,18.60
2019-01-31T20:24:17.880Z,18.17
2019-01-31T20:27:12.517Z,20.90
2019-01-31T20:30:08.748Z,20.83
2019-01-31T20:33:03.759Z,22.13
2019-01-31T20:35:58.525Z,18.73
2019-01-31T20:38:52.939Z,18.67
2019-01-31T20:41:54.286Z,23.40
2019-01-31T20:44:44.211Z,23.07
2019-01-31T20:47:38.767Z,23.90
2019-01-31T20:50:35.137Z,18.97
2019-01-31T20:53:30.070Z,21.47
2019-01-31T20:56:24.610Z,22.00
2019-01-31T20:59:19.490Z,23.93
2019-01-31T21:02:14.346Z,20.23
2019-01-31T21:05:09.500Z,24.87
2019-01-31T21:08:05.858Z,21.17
2019-01-31T21:11:01.352Z,21.77
2019-01-31T21:13:56.192Z,24.63
2019-01-31T21:16:52.057Z,23.53
2019-01-31T21:19:47.311Z,23.20
2019-01-31T21:22:42.177Z,21.10
2019-01-31T21:25:36.732Z,21.57
2019-01-31T21:28:31.684Z,22.00
2019-01-31T21:31:26.962Z,20.77
2019-01-31T21:34:24.705Z,19.77
2019-01-31T21:37:19.538Z,26.57
2019-01-31T21:40:14.336Z,24.67
2019-01-31T21:43:09.453Z,26.10
2019-01-31T21:46:04.341Z,26.47
2019-01-31T21:48:59.014Z,33.23
2019-01-31T21:51:53.614Z,22.37
2019-01-31T21:54:48.278Z,24.10
2019-01-31T21:57:42.728Z,22.07
2019-01-31T22:00:37.454Z,18.60
